sensor_id;sensor_type;location;lat;lon;timestamp;P1;durP1;ratioP1;P2;durP2;ratioP2
1615;SDS011;801;47.982;7.810;2023-10-19T00:01:22;3.25;;;2.17;;
1615;SDS011;801;47.982;7.810;2023-10-19T00:03:51;4.00;;;2.67;;
1615;SDS011;801;47.982;7.810;2023-10-19T00:06:21;4.05;;;2.65;;
1615;SDS011;801;47.982;7.810;2023-10-19T00:08:52;4.68;;;3.28;;
1615;SDS011;801;47.982;7.810;2023-10-19T00:11:19;2.22;;;2.03;;
1615;SDS011;801;47.982;7.810;2023-10-19T00:13:49;3.28;;;2.25;;
1615;SDS011;801;47.982;7.810;2023-10-19T00:16:20;2.55;;;2.20;;
1615;SDS011;801;47.982;7.810;2023-10-19T00:18:54;2.47;;;2.28;;
1615;SDS011;801;47.982;7.810;2023-10-19T00:21:24;5.13;;;2.90;;
1615;SDS011;801;47.982;7.810;2023-10-19T00:23:58;2.78;;;2.13;;
1615;SDS011;801;47.982;7.810;2023-10-19T00:26:30;1.58;;;1.48;;
1615;SDS011;801;47.982;7.810;2023-10-19T00:28:57;3.17;;;2.25;;
1615;SDS011;801;47.982;7.810;2023-10-19T00:31:30;6.75;;;2.92;;
1615;SDS011;801;47.982;7.810;2023-10-19T00:34:02;2.58;;;1.75;;
1615;SDS011;801;47.982;7.810;2023-10-19T00:36:29;3.22;;;2.13;;
1615;SDS011;801;47.982;7.810;2023-10-19T00:39:02;3.15;;;2.65;;
1615;SDS011;801;47.982;7.810;2023-10-19T00:41:40;4.68;;;2.75;;
1615;SDS011;801;47.982;7.810;2023-10-19T00:44:11;4.05;;;2.88;;
1615;SDS011;801;47.982;7.810;2023-10-19T00:46:41;2.47;;;2.28;;
1615;SDS011;801;47.982;7.810;2023-10-19T00:49:15;7.97;;;3.30;;
1615;SDS011;801;47.982;7.810;2023-10-19T00:51:43;7.22;;;3.63;;
1615;SDS011;801;47.982;7.810;2023-10-19T00:54:21;3.03;;;2.28;;
1615;SDS011;801;47.982;7.810;2023-10-19T00:56:57;3.20;;;2.72;;
1615;SDS011;801;47.982;7.810;2023-10-19T00:59:36;5.88;;;2.67;;
1615;SDS011;801;47.982;7.810;2023-10-19T01:02:13;6.30;;;3.10;;
1615;SDS011;801;47.982;7.810;2023-10-19T01:04:48;3.83;;;3.05;;
1615;SDS011;801;47.982;7.810;2023-10-19T01:07:26;5.85;;;3.47;;
1615;SDS011;801;47.982;7.810;2023-10-19T01:09:57;2.92;;;2.30;;
1615;SDS011;801;47.982;7.810;2023-10-19T01:12:30;3.17;;;2.13;;
1615;SDS011;801;47.982;7.810;2023-10-19T01:15:05;6.65;;;1.83;;
1615;SDS011;801;47.982;7.810;2023-10-19T01:17:38;2.97;;;2.03;;
1615;SDS011;801;47.982;7.810;2023-10-19T01:20:09;3.42;;;2.53;;
1615;SDS011;801;47.982;7.810;2023-10-19T01:22:50;4.88;;;2.42;;
1615;SDS011;801;47.982;7.810;2023-10-19T01:25:31;3.60;;;3.05;;
1615;SDS011;801;47.982;7.810;2023-10-19T01:28:11;4.93;;;3.20;;
1615;SDS011;801;47.982;7.810;2023-10-19T01:30:42;3.17;;;2.83;;
1615;SDS011;801;47.982;7.810;2023-10-19T01:33:18;2.72;;;2.20;;
1615;SDS011;801;47.982;7.810;2023-10-19T01:35:48;3.53;;;2.13;;
1615;SDS011;801;47.982;7.810;2023-10-19T01:38:35;6.95;;;2.55;;
1615;SDS011;801;47.982;7.810;2023-10-19T01:41:07;3.60;;;3.28;;
1615;SDS011;801;47.982;7.810;2023-10-19T01:43:39;2.67;;;2.47;;
1615;SDS011;801;47.982;7.810;2023-10-19T01:46:08;2.70;;;1.83;;
1615;SDS011;801;47.982;7.810;2023-10-19T01:48:37;3.97;;;2.30;;
1615;SDS011;801;47.982;7.810;2023-10-19T01:51:08;2.78;;;2.42;;
1615;SDS011;801;47.982;7.810;2023-10-19T01:53:37;5.78;;;2.03;;
1615;SDS011;801;47.982;7.810;2023-10-19T01:56:08;4.38;;;2.65;;
1615;SDS011;801;47.982;7.810;2023-10-19T01:58:40;2.67;;;2.30;;
1615;SDS011;801;47.982;7.810;2023-10-19T02:01:14;3.92;;;3.03;;
1615;SDS011;801;47.982;7.810;2023-10-19T02:03:55;4.70;;;2.20;;
1615;SDS011;801;47.982;7.810;2023-10-19T02:06:26;1.52;;;1.42;;
1615;SDS011;801;47.982;7.810;2023-10-19T02:09:03;2.97;;;2.25;;
1615;SDS011;801;47.982;7.810;2023-10-19T02:11:35;2.47;;;2.28;;
1615;SDS011;801;47.982;7.810;2023-10-19T02:14:07;5.63;;;4.00;;
1615;SDS011;801;47.982;7.810;2023-10-19T02:16:40;2.55;;;1.85;;
1615;SDS011;801;47.982;7.810;2023-10-19T02:19:10;3.75;;;2.80;;
1615;SDS011;801;47.982;7.810;2023-10-19T02:21:37;4.18;;;2.53;;
1615;SDS011;801;47.982;7.810;2023-10-19T02:24:09;5.05;;;3.65;;
1615;SDS011;801;47.982;7.810;2023-10-19T02:26:39;3.30;;;1.45;;
1615;SDS011;801;47.982;7.810;2023-10-19T02:29:16;3.25;;;2.05;;
1615;SDS011;801;47.982;7.810;2023-10-19T02:31:49;2.22;;;1.80;;
1615;SDS011;801;47.982;7.810;2023-10-19T02:34:16;4.85;;;2.28;;
1615;SDS011;801;47.982;7.810;2023-10-19T02:36:45;2.92;;;2.42;;
1615;SDS011;801;47.982;7.810;2023-10-19T02:39:16;4.57;;;1.98;;
1615;SDS011;801;47.982;7.810;2023-10-19T02:41:43;5.10;;;2.65;;
1615;SDS011;801;47.982;7.810;2023-10-19T02:44:12;4.38;;;2.15;;
1615;SDS011;801;47.982;7.810;2023-10-19T02:46:48;4.57;;;2.25;;
1615;SDS011;801;47.982;7.810;2023-10-19T02:49:23;5.25;;;2.13;;
1615;SDS011;801;47.982;7.810;2023-10-19T02:51:52;2.78;;;2.55;;
1615;SDS011;801;47.982;7.810;2023-10-19T02:54:29;3.45;;;2.30;;
1615;SDS011;801;47.982;7.810;2023-10-19T02:56:58;2.38;;;1.75;;
1615;SDS011;801;47.982;7.810;2023-10-19T02:59:27;2.83;;;1.63;;
1615;SDS011;801;47.982;7.810;2023-10-19T03:01:55;5.57;;;2.67;;
1615;SDS011;801;47.982;7.810;2023-10-19T03:04:26;2.55;;;1.88;;
1615;SDS011;801;47.982;7.810;2023-10-19T03:06:54;1.63;;;1.52;;
1615;SDS011;801;47.982;7.810;2023-10-19T03:09:24;2.70;;;1.88;;
1615;SDS011;801;47.982;7.810;2023-10-19T03:11:55;4.07;;;3.70;;
1615;SDS011;801;47.982;7.810;2023-10-19T03:14:25;1.55;;;1.45;;
1615;SDS011;801;47.982;7.810;2023-10-19T03:16:51;3.67;;;1.90;;
1615;SDS011;801;47.982;7.810;2023-10-19T03:19:22;1.42;;;1.30;;
1615;SDS011;801;47.982;7.810;2023-10-19T03:21:54;1.67;;;1.40;;
1615;SDS011;801;47.982;7.810;2023-10-19T03:24:25;2.90;;;1.58;;
1615;SDS011;801;47.982;7.810;2023-10-19T03:27:05;2.90;;;2.22;;
1615;SDS011;801;47.982;7.810;2023-10-19T03:29:37;3.13;;;2.35;;
1615;SDS011;801;47.982;7.810;2023-10-19T03:32:04;2.17;;;1.30;;
1615;SDS011;801;47.982;7.810;2023-10-19T03:34:32;2.03;;;1.85;;
1615;SDS011;801;47.982;7.810;2023-10-19T03:36:58;1.60;;;1.10;;
1615;SDS011;801;47.982;7.810;2023-10-19T03:39:30;2.38;;;1.58;;
1615;SDS011;801;47.982;7.810;2023-10-19T03:41:58;1.73;;;1.60;;
1615;SDS011;801;47.982;7.810;2023-10-19T03:44:27;6.72;;;1.50;;
1615;SDS011;801;47.982;7.810;2023-10-19T03:47:04;3.92;;;1.92;;
1615;SDS011;801;47.982;7.810;2023-10-19T03:49:36;2.25;;;1.73;;
1615;SDS011;801;47.982;7.810;2023-10-19T03:52:04;1.15;;;0.77;;
1615;SDS011;801;47.982;7.810;2023-10-19T03:54:44;1.10;;;1.00;;
1615;SDS011;801;47.982;7.810;2023-10-19T03:57:12;2.65;;;2.05;;
1615;SDS011;801;47.982;7.810;2023-10-19T03:59:46;1.67;;;1.58;;
1615;SDS011;801;47.982;7.810;2023-10-19T04:02:15;1.77;;;0.65;;
1615;SDS011;801;47.982;7.810;2023-10-19T04:04:45;0.98;;;0.98;;
1615;SDS011;801;47.982;7.810;2023-10-19T04:07:13;1.35;;;0.70;;
1615;SDS011;801;47.982;7.810;2023-10-19T04:09:46;1.27;;;1.17;;
1615;SDS011;801;47.982;7.810;2023-10-19T04:12:34;0.93;;;0.82;;
1615;SDS011;801;47.982;7.810;2023-10-19T04:15:04;2.30;;;1.67;;
1615;SDS011;801;47.982;7.810;2023-10-19T04:17:37;1.33;;;1.10;;
1615;SDS011;801;47.982;7.810;2023-10-19T04:20:07;1.08;;;0.80;;
1615;SDS011;801;47.982;7.810;2023-10-19T04:22:51;2.38;;;1.70;;
1615;SDS011;801;47.982;7.810;2023-10-19T04:25:19;1.35;;;0.95;;
1615;SDS011;801;47.982;7.810;2023-10-19T04:27:46;1.25;;;1.15;;
1615;SDS011;801;47.982;7.810;2023-10-19T04:30:15;7.15;;;1.08;;
1615;SDS011;801;47.982;7.810;2023-10-19T04:32:43;1.67;;;1.30;;
1615;SDS011;801;47.982;7.810;2023-10-19T04:35:10;1.15;;;0.88;;
1615;SDS011;801;47.982;7.810;2023-10-19T04:37:38;2.78;;;1.83;;
1615;SDS011;801;47.982;7.810;2023-10-19T04:40:07;1.58;;;1.30;;
1615;SDS011;801;47.982;7.810;2023-10-19T04:42:34;3.45;;;2.50;;
1615;SDS011;801;47.982;7.810;2023-10-19T04:45:01;1.83;;;1.35;;
1615;SDS011;801;47.982;7.810;2023-10-19T04:47:31;2.33;;;2.05;;
1615;SDS011;801;47.982;7.810;2023-10-19T04:50:00;1.73;;;0.75;;
1615;SDS011;801;47.982;7.810;2023-10-19T04:52:28;1.95;;;0.68;;
1615;SDS011;801;47.982;7.810;2023-10-19T04:54:55;1.25;;;0.98;;
1615;SDS011;801;47.982;7.810;2023-10-19T04:57:21;2.15;;;1.52;;
1615;SDS011;801;47.982;7.810;2023-10-19T04:59:48;1.25;;;1.15;;
1615;SDS011;801;47.982;7.810;2023-10-19T05:02:15;1.10;;;1.00;;
1615;SDS011;801;47.982;7.810;2023-10-19T05:04:43;2.33;;;2.00;;
1615;SDS011;801;47.982;7.810;2023-10-19T05:07:10;1.73;;;1.30;;
1615;SDS011;801;47.982;7.810;2023-10-19T05:09:41;2.10;;;1.75;;
1615;SDS011;801;47.982;7.810;2023-10-19T05:12:08;2.28;;;1.63;;
1615;SDS011;801;47.982;7.810;2023-10-19T05:14:36;6.05;;;1.75;;
1615;SDS011;801;47.982;7.810;2023-10-19T05:17:03;0.85;;;0.85;;
1615;SDS011;801;47.982;7.810;2023-10-19T05:19:30;1.10;;;1.00;;
1615;SDS011;801;47.982;7.810;2023-10-19T05:21:59;1.33;;;1.23;;
1615;SDS011;801;47.982;7.810;2023-10-19T05:24:26;2.17;;;1.65;;
1615;SDS011;801;47.982;7.810;2023-10-19T05:26:52;1.27;;;1.17;;
1615;SDS011;801;47.982;7.810;2023-10-19T05:29:19;2.55;;;2.35;;
1615;SDS011;801;47.982;7.810;2023-10-19T05:31:46;2.78;;;1.80;;
1615;SDS011;801;47.982;7.810;2023-10-19T05:34:12;4.53;;;2.50;;
1615;SDS011;801;47.982;7.810;2023-10-19T05:36:41;1.58;;;1.33;;
1615;SDS011;801;47.982;7.810;2023-10-19T05:39:12;2.10;;;1.52;;
1615;SDS011;801;47.982;7.810;2023-10-19T05:41:39;2.72;;;1.85;;
1615;SDS011;801;47.982;7.810;2023-10-19T05:44:05;5.07;;;1.85;;
1615;SDS011;801;47.982;7.810;2023-10-19T05:46:32;4.78;;;1.73;;
1615;SDS011;801;47.982;7.810;2023-10-19T05:48:58;5.22;;;1.98;;
1615;SDS011;801;47.982;7.810;2023-10-19T05:51:26;1.08;;;0.82;;
1615;SDS011;801;47.982;7.810;2023-10-19T05:53:53;2.50;;;1.85;;
1615;SDS011;801;47.982;7.810;2023-10-19T05:56:27;2.78;;;1.88;;
1615;SDS011;801;47.982;7.810;2023-10-19T05:58:55;2.25;;;1.48;;
1615;SDS011;801;47.982;7.810;2023-10-19T06:01:22;6.20;;;2.42;;
1615;SDS011;801;47.982;7.810;2023-10-19T06:03:49;2.25;;;1.98;;
1615;SDS011;801;47.982;7.810;2023-10-19T06:06:16;1.45;;;1.20;;
1615;SDS011;801;47.982;7.810;2023-10-19T06:08:44;2.10;;;1.58;;
1615;SDS011;801;47.982;7.810;2023-10-19T06:11:11;2.50;;;2.22;;
1615;SDS011;801;47.982;7.810;2023-10-19T06:13:39;1.52;;;1.38;;
1615;SDS011;801;47.982;7.810;2023-10-19T06:16:06;2.30;;;1.38;;
1615;SDS011;801;47.982;7.810;2023-10-19T06:18:32;1.50;;;1.35;;
1615;SDS011;801;47.982;7.810;2023-10-19T06:20:59;1.88;;;1.77;;
1615;SDS011;801;47.982;7.810;2023-10-19T06:23:25;2.03;;;1.40;;
1615;SDS011;801;47.982;7.810;2023-10-19T06:25:52;4.50;;;2.05;;
1615;SDS011;801;47.982;7.810;2023-10-19T06:28:18;1.55;;;1.38;;
1615;SDS011;801;47.982;7.810;2023-10-19T06:30:46;1.67;;;1.20;;
1615;SDS011;801;47.982;7.810;2023-10-19T06:33:14;1.90;;;1.80;;
1615;SDS011;801;47.982;7.810;2023-10-19T06:35:40;4.13;;;1.80;;
1615;SDS011;801;47.982;7.810;2023-10-19T06:38:06;3.70;;;2.17;;
1615;SDS011;801;47.982;7.810;2023-10-19T06:40:34;2.00;;;1.65;;
1615;SDS011;801;47.982;7.810;2023-10-19T06:43:02;2.25;;;1.42;;
1615;SDS011;801;47.982;7.810;2023-10-19T06:45:30;3.50;;;2.80;;
1615;SDS011;801;47.982;7.810;2023-10-19T06:47:58;2.80;;;1.70;;
1615;SDS011;801;47.982;7.810;2023-10-19T06:50:25;2.45;;;1.88;;
1615;SDS011;801;47.982;7.810;2023-10-19T06:52:52;3.80;;;2.42;;
1615;SDS011;801;47.982;7.810;2023-10-19T06:55:20;3.83;;;2.42;;
1615;SDS011;801;47.982;7.810;2023-10-19T06:57:48;1.67;;;1.58;;
1615;SDS011;801;47.982;7.810;2023-10-19T07:00:15;1.70;;;1.60;;
1615;SDS011;801;47.982;7.810;2023-10-19T07:02:44;1.85;;;1.23;;
1615;SDS011;801;47.982;7.810;2023-10-19T07:05:13;2.05;;;1.67;;
1615;SDS011;801;47.982;7.810;2023-10-19T07:07:43;3.10;;;2.28;;
1615;SDS011;801;47.982;7.810;2023-10-19T07:10:11;2.70;;;1.83;;
1615;SDS011;801;47.982;7.810;2023-10-19T07:12:39;4.88;;;1.67;;
1615;SDS011;801;47.982;7.810;2023-10-19T07:15:07;2.05;;;1.23;;
1615;SDS011;801;47.982;7.810;2023-10-19T07:17:38;2.45;;;2.10;;
1615;SDS011;801;47.982;7.810;2023-10-19T07:20:06;5.57;;;2.47;;
1615;SDS011;801;47.982;7.810;2023-10-19T07:22:35;2.38;;;0.88;;
1615;SDS011;801;47.982;7.810;2023-10-19T07:25:04;3.85;;;2.90;;
1615;SDS011;801;47.982;7.810;2023-10-19T07:27:31;1.85;;;1.50;;
1615;SDS011;801;47.982;7.810;2023-10-19T07:29:58;2.30;;;1.70;;
1615;SDS011;801;47.982;7.810;2023-10-19T07:32:25;3.45;;;2.58;;
1615;SDS011;801;47.982;7.810;2023-10-19T07:34:53;2.55;;;2.35;;
1615;SDS011;801;47.982;7.810;2023-10-19T07:37:19;1.48;;;1.38;;
1615;SDS011;801;47.982;7.810;2023-10-19T07:39:49;3.95;;;1.77;;
1615;SDS011;801;47.982;7.810;2023-10-19T07:42:17;3.22;;;1.88;;
1615;SDS011;801;47.982;7.810;2023-10-19T07:44:44;1.67;;;1.08;;
1615;SDS011;801;47.982;7.810;2023-10-19T07:47:11;3.95;;;2.13;;
1615;SDS011;801;47.982;7.810;2023-10-19T07:49:38;4.85;;;2.72;;
1615;SDS011;801;47.982;7.810;2023-10-19T07:52:04;2.58;;;1.45;;
1615;SDS011;801;47.982;7.810;2023-10-19T07:54:32;1.77;;;1.50;;
1615;SDS011;801;47.982;7.810;2023-10-19T07:57:00;3.30;;;2.28;;
1615;SDS011;801;47.982;7.810;2023-10-19T07:59:30;1.55;;;1.45;;
1615;SDS011;801;47.982;7.810;2023-10-19T08:01:57;3.08;;;2.05;;
1615;SDS011;801;47.982;7.810;2023-10-19T08:04:26;3.30;;;2.30;;
1615;SDS011;801;47.982;7.810;2023-10-19T08:06:53;2.42;;;2.03;;
1615;SDS011;801;47.982;7.810;2023-10-19T08:09:20;3.17;;;1.85;;
1615;SDS011;801;47.982;7.810;2023-10-19T08:11:49;3.88;;;2.08;;
1615;SDS011;801;47.982;7.810;2023-10-19T08:14:16;2.63;;;1.38;;
1615;SDS011;801;47.982;7.810;2023-10-19T08:16:44;2.88;;;1.92;;
1615;SDS011;801;47.982;7.810;2023-10-19T08:19:11;3.80;;;2.38;;
1615;SDS011;801;47.982;7.810;2023-10-19T08:21:37;5.28;;;1.77;;
1615;SDS011;801;47.982;7.810;2023-10-19T08:24:04;18.90;;;2.50;;
1615;SDS011;801;47.982;7.810;2023-10-19T08:26:31;3.38;;;2.00;;
1615;SDS011;801;47.982;7.810;2023-10-19T08:28:57;2.95;;;2.05;;
1615;SDS011;801;47.982;7.810;2023-10-19T08:31:25;5.95;;;3.03;;
1615;SDS011;801;47.982;7.810;2023-10-19T08:33:52;3.05;;;1.45;;
1615;SDS011;801;47.982;7.810;2023-10-19T08:36:20;4.72;;;2.72;;
1615;SDS011;801;47.982;7.810;2023-10-19T08:38:46;2.15;;;1.55;;
1615;SDS011;801;47.982;7.810;2023-10-19T08:41:13;1.35;;;1.25;;
1615;SDS011;801;47.982;7.810;2023-10-19T08:43:41;3.25;;;1.40;;
1615;SDS011;801;47.982;7.810;2023-10-19T08:46:08;5.05;;;1.80;;
1615;SDS011;801;47.982;7.810;2023-10-19T08:48:38;4.75;;;2.58;;
1615;SDS011;801;47.982;7.810;2023-10-19T08:51:08;1.45;;;1.35;;
1615;SDS011;801;47.982;7.810;2023-10-19T08:53:36;11.18;;;1.75;;
1615;SDS011;801;47.982;7.810;2023-10-19T08:56:05;3.80;;;1.75;;
1615;SDS011;801;47.982;7.810;2023-10-19T08:58:33;4.35;;;2.08;;
1615;SDS011;801;47.982;7.810;2023-10-19T09:01:00;6.45;;;1.88;;
1615;SDS011;801;47.982;7.810;2023-10-19T09:03:31;2.42;;;2.22;;
1615;SDS011;801;47.982;7.810;2023-10-19T09:06:01;4.53;;;1.90;;
1615;SDS011;801;47.982;7.810;2023-10-19T09:08:30;2.95;;;2.33;;
1615;SDS011;801;47.982;7.810;2023-10-19T09:11:05;3.95;;;1.30;;
1615;SDS011;801;47.982;7.810;2023-10-19T09:13:40;2.40;;;1.48;;
1615;SDS011;801;47.982;7.810;2023-10-19T09:16:09;3.20;;;1.90;;
1615;SDS011;801;47.982;7.810;2023-10-19T09:18:36;1.73;;;1.52;;
1615;SDS011;801;47.982;7.810;2023-10-19T09:21:06;14.32;;;2.33;;
1615;SDS011;801;47.982;7.810;2023-10-19T09:23:36;4.55;;;2.28;;
1615;SDS011;801;47.982;7.810;2023-10-19T09:26:04;8.77;;;3.03;;
1615;SDS011;801;47.982;7.810;2023-10-19T09:28:32;18.88;;;3.25;;
1615;SDS011;801;47.982;7.810;2023-10-19T09:31:01;9.65;;;3.13;;
1615;SDS011;801;47.982;7.810;2023-10-19T09:33:28;2.75;;;2.45;;
1615;SDS011;801;47.982;7.810;2023-10-19T09:35:57;3.05;;;1.50;;
1615;SDS011;801;47.982;7.810;2023-10-19T09:38:27;3.22;;;1.23;;
1615;SDS011;801;47.982;7.810;2023-10-19T09:40:54;0.80;;;0.77;;
1615;SDS011;801;47.982;7.810;2023-10-19T09:43:30;0.80;;;0.80;;
1615;SDS011;801;47.982;7.810;2023-10-19T09:46:00;4.38;;;1.35;;
1615;SDS011;801;47.982;7.810;2023-10-19T09:48:32;2.67;;;0.80;;
1615;SDS011;801;47.982;7.810;2023-10-19T09:51:06;0.43;;;0.40;;
1615;SDS011;801;47.982;7.810;2023-10-19T09:53:35;0.35;;;0.30;;
1615;SDS011;801;47.982;7.810;2023-10-19T09:56:05;0.82;;;0.60;;
1615;SDS011;801;47.982;7.810;2023-10-19T09:58:33;0.30;;;0.30;;
1615;SDS011;801;47.982;7.810;2023-10-19T10:01:03;0.50;;;0.50;;
1615;SDS011;801;47.982;7.810;2023-10-19T10:03:44;0.52;;;0.52;;
1615;SDS011;801;47.982;7.810;2023-10-19T10:06:14;0.25;;;0.17;;
1615;SDS011;801;47.982;7.810;2023-10-19T10:08:44;2.08;;;0.63;;
1615;SDS011;801;47.982;7.810;2023-10-19T10:11:13;0.22;;;0.22;;
1615;SDS011;801;47.982;7.810;2023-10-19T10:13:44;0.98;;;0.50;;
1615;SDS011;801;47.982;7.810;2023-10-19T10:16:12;2.20;;;0.80;;
1615;SDS011;801;47.982;7.810;2023-10-19T10:18:40;0.50;;;0.40;;
1615;SDS011;801;47.982;7.810;2023-10-19T10:21:07;1.85;;;0.85;;
1615;SDS011;801;47.982;7.810;2023-10-19T10:23:42;0.60;;;0.40;;
1615;SDS011;801;47.982;7.810;2023-10-19T10:26:12;1.38;;;0.40;;
1615;SDS011;801;47.982;7.810;2023-10-19T10:28:40;0.10;;;0.10;;
1615;SDS011;801;47.982;7.810;2023-10-19T10:31:12;1.38;;;0.47;;
1615;SDS011;801;47.982;7.810;2023-10-19T10:33:42;1.38;;;0.65;;
1615;SDS011;801;47.982;7.810;2023-10-19T10:36:13;0.38;;;0.38;;
1615;SDS011;801;47.982;7.810;2023-10-19T10:38:43;0.22;;;0.22;;
1615;SDS011;801;47.982;7.810;2023-10-19T10:41:11;0.50;;;0.50;;
1615;SDS011;801;47.982;7.810;2023-10-19T10:43:51;1.00;;;0.80;;
1615;SDS011;801;47.982;7.810;2023-10-19T10:46:19;13.52;;;0.75;;
1615;SDS011;801;47.982;7.810;2023-10-19T10:48:47;1.10;;;0.88;;
1615;SDS011;801;47.982;7.810;2023-10-19T10:51:14;1.00;;;0.88;;
1615;SDS011;801;47.982;7.810;2023-10-19T10:53:41;0.65;;;0.65;;
1615;SDS011;801;47.982;7.810;2023-10-19T10:56:07;6.97;;;2.20;;
1615;SDS011;801;47.982;7.810;2023-10-19T10:58:35;1.30;;;0.90;;
1615;SDS011;801;47.982;7.810;2023-10-19T11:01:02;1.42;;;0.98;;
1615;SDS011;801;47.982;7.810;2023-10-19T11:03:28;1.27;;;0.63;;
1615;SDS011;801;47.982;7.810;2023-10-19T11:05:55;1.75;;;0.50;;
1615;SDS011;801;47.982;7.810;2023-10-19T11:08:28;0.50;;;0.50;;
1615;SDS011;801;47.982;7.810;2023-10-19T11:11:01;0.80;;;0.80;;
1615;SDS011;801;47.982;7.810;2023-10-19T11:13:30;0.45;;;0.35;;
1615;SDS011;801;47.982;7.810;2023-10-19T11:15:59;3.22;;;0.30;;
1615;SDS011;801;47.982;7.810;2023-10-19T11:18:30;1.65;;;0.60;;
1615;SDS011;801;47.982;7.810;2023-10-19T11:20:57;0.50;;;0.50;;
1615;SDS011;801;47.982;7.810;2023-10-19T11:23:39;1.80;;;0.80;;
1615;SDS011;801;47.982;7.810;2023-10-19T11:26:07;0.30;;;0.30;;
1615;SDS011;801;47.982;7.810;2023-10-19T11:28:35;1.40;;;0.65;;
1615;SDS011;801;47.982;7.810;2023-10-19T11:31:13;0.30;;;0.20;;
1615;SDS011;801;47.982;7.810;2023-10-19T11:33:40;2.28;;;0.95;;
1615;SDS011;801;47.982;7.810;2023-10-19T11:36:08;0.35;;;0.35;;
1615;SDS011;801;47.982;7.810;2023-10-19T11:38:37;0.47;;;0.43;;
1615;SDS011;801;47.982;7.810;2023-10-19T11:41:05;0.20;;;0.20;;
1615;SDS011;801;47.982;7.810;2023-10-19T11:43:32;0.43;;;0.43;;
1615;SDS011;801;47.982;7.810;2023-10-19T11:45:59;1.20;;;0.98;;
1615;SDS011;801;47.982;7.810;2023-10-19T11:48:27;6.25;;;1.30;;
1615;SDS011;801;47.982;7.810;2023-10-19T11:50:54;0.32;;;0.32;;
1615;SDS011;801;47.982;7.810;2023-10-19T11:53:20;7.68;;;1.05;;
1615;SDS011;801;47.982;7.810;2023-10-19T11:55:47;1.45;;;0.55;;
1615;SDS011;801;47.982;7.810;2023-10-19T11:58:14;1.10;;;1.00;;
1615;SDS011;801;47.982;7.810;2023-10-19T12:00:40;1.42;;;1.33;;
1615;SDS011;801;47.982;7.810;2023-10-19T12:03:08;3.95;;;1.23;;
1615;SDS011;801;47.982;7.810;2023-10-19T12:05:37;2.38;;;1.15;;
1615;SDS011;801;47.982;7.810;2023-10-19T12:08:04;2.17;;;1.17;;
1615;SDS011;801;47.982;7.810;2023-10-19T12:10:31;0.30;;;0.30;;
1615;SDS011;801;47.982;7.810;2023-10-19T12:13:00;0.40;;;0.40;;
1615;SDS011;801;47.982;7.810;2023-10-19T12:15:27;0.98;;;0.35;;
1615;SDS011;801;47.982;7.810;2023-10-19T12:17:54;0.20;;;0.20;;
1615;SDS011;801;47.982;7.810;2023-10-19T12:20:20;0.63;;;0.30;;
1615;SDS011;801;47.982;7.810;2023-10-19T12:22:49;0.73;;;0.32;;
1615;SDS011;801;47.982;7.810;2023-10-19T12:25:18;0.13;;;0.13;;
1615;SDS011;801;47.982;7.810;2023-10-19T12:27:45;0.20;;;0.20;;
1615;SDS011;801;47.982;7.810;2023-10-19T12:30:12;0.77;;;0.40;;
1615;SDS011;801;47.982;7.810;2023-10-19T12:32:45;0.30;;;0.30;;
1615;SDS011;801;47.982;7.810;2023-10-19T12:35:14;0.60;;;0.60;;
1615;SDS011;801;47.982;7.810;2023-10-19T12:37:43;0.70;;;0.40;;
1615;SDS011;801;47.982;7.810;2023-10-19T12:40:17;0.88;;;0.40;;
1615;SDS011;801;47.982;7.810;2023-10-19T12:42:53;0.10;;;0.10;;
1615;SDS011;801;47.982;7.810;2023-10-19T12:45:20;0.52;;;0.13;;
1615;SDS011;801;47.982;7.810;2023-10-19T12:47:47;0.20;;;0.20;;
1615;SDS011;801;47.982;7.810;2023-10-19T12:50:14;0.20;;;0.20;;
1615;SDS011;801;47.982;7.810;2023-10-19T12:52:41;1.42;;;0.40;;
1615;SDS011;801;47.982;7.810;2023-10-19T12:55:08;0.20;;;0.20;;
1615;SDS011;801;47.982;7.810;2023-10-19T12:57:37;0.10;;;0.10;;
1615;SDS011;801;47.982;7.810;2023-10-19T13:00:06;1.17;;;0.35;;
1615;SDS011;801;47.982;7.810;2023-10-19T13:02:47;0.28;;;0.28;;
1615;SDS011;801;47.982;7.810;2023-10-19T13:05:14;0.20;;;0.20;;
1615;SDS011;801;47.982;7.810;2023-10-19T13:07:43;0.30;;;0.30;;
1615;SDS011;801;47.982;7.810;2023-10-19T13:10:09;0.20;;;0.20;;
1615;SDS011;801;47.982;7.810;2023-10-19T13:12:37;0.77;;;0.50;;
1615;SDS011;801;47.982;7.810;2023-10-19T13:15:06;0.10;;;0.10;;
1615;SDS011;801;47.982;7.810;2023-10-19T13:17:38;0.73;;;0.43;;
1615;SDS011;801;47.982;7.810;2023-10-19T13:20:05;0.20;;;0.20;;
1615;SDS011;801;47.982;7.810;2023-10-19T13:22:41;0.43;;;0.20;;
1615;SDS011;801;47.982;7.810;2023-10-19T13:25:08;0.20;;;0.20;;
1615;SDS011;801;47.982;7.810;2023-10-19T13:27:39;0.10;;;0.10;;
1615;SDS011;801;47.982;7.810;2023-10-19T13:30:07;0.80;;;0.65;;
1615;SDS011;801;47.982;7.810;2023-10-19T13:32:36;1.48;;;0.43;;
1615;SDS011;801;47.982;7.810;2023-10-19T13:35:03;0.30;;;0.30;;
1615;SDS011;801;47.982;7.810;2023-10-19T13:37:30;0.20;;;0.20;;
1615;SDS011;801;47.982;7.810;2023-10-19T13:39:56;0.20;;;0.20;;
1615;SDS011;801;47.982;7.810;2023-10-19T13:42:24;0.77;;;0.77;;
1615;SDS011;801;47.982;7.810;2023-10-19T13:44:51;2.28;;;0.90;;
1615;SDS011;801;47.982;7.810;2023-10-19T13:47:18;1.08;;;0.70;;
1615;SDS011;801;47.982;7.810;2023-10-19T13:49:45;0.20;;;0.20;;
1615;SDS011;801;47.982;7.810;2023-10-19T13:52:12;0.25;;;0.25;;
1615;SDS011;801;47.982;7.810;2023-10-19T13:54:40;0.22;;;0.20;;
1615;SDS011;801;47.982;7.810;2023-10-19T13:57:07;0.30;;;0.30;;
1615;SDS011;801;47.982;7.810;2023-10-19T13:59:35;0.30;;;0.30;;
1615;SDS011;801;47.982;7.810;2023-10-19T14:02:03;8.80;;;0.88;;
1615;SDS011;801;47.982;7.810;2023-10-19T14:04:30;0.30;;;0.30;;
1615;SDS011;801;47.982;7.810;2023-10-19T14:06:57;0.95;;;0.70;;
1615;SDS011;801;47.982;7.810;2023-10-19T14:09:24;2.00;;;0.57;;
1615;SDS011;801;47.982;7.810;2023-10-19T14:11:53;1.20;;;0.60;;
1615;SDS011;801;47.982;7.810;2023-10-19T14:14:19;2.70;;;0.73;;
1615;SDS011;801;47.982;7.810;2023-10-19T14:16:46;0.43;;;0.38;;
1615;SDS011;801;47.982;7.810;2023-10-19T14:19:16;2.75;;;1.65;;
1615;SDS011;801;47.982;7.810;2023-10-19T14:21:43;0.45;;;0.45;;
1615;SDS011;801;47.982;7.810;2023-10-19T14:24:11;0.20;;;0.20;;
1615;SDS011;801;47.982;7.810;2023-10-19T14:26:37;0.30;;;0.30;;
1615;SDS011;801;47.982;7.810;2023-10-19T14:29:05;0.52;;;0.25;;
1615;SDS011;801;47.982;7.810;2023-10-19T14:31:32;0.32;;;0.32;;
1615;SDS011;801;47.982;7.810;2023-10-19T14:33:59;0.40;;;0.40;;
1615;SDS011;801;47.982;7.810;2023-10-19T14:36:27;1.13;;;0.38;;
1615;SDS011;801;47.982;7.810;2023-10-19T14:38:54;0.20;;;0.20;;
1615;SDS011;801;47.982;7.810;2023-10-19T14:41:20;1.00;;;0.47;;
1615;SDS011;801;47.982;7.810;2023-10-19T14:43:47;0.45;;;0.43;;
1615;SDS011;801;47.982;7.810;2023-10-19T14:46:14;1.38;;;0.75;;
1615;SDS011;801;47.982;7.810;2023-10-19T14:48:41;0.40;;;0.40;;
1615;SDS011;801;47.982;7.810;2023-10-19T14:51:07;0.43;;;0.43;;
1615;SDS011;801;47.982;7.810;2023-10-19T14:53:35;0.20;;;0.20;;
1615;SDS011;801;47.982;7.810;2023-10-19T14:56:02;0.38;;;0.38;;
1615;SDS011;801;47.982;7.810;2023-10-19T14:58:28;0.52;;;0.52;;
1615;SDS011;801;47.982;7.810;2023-10-19T15:00:56;1.10;;;0.50;;
1615;SDS011;801;47.982;7.810;2023-10-19T15:03:23;0.40;;;0.40;;
1615;SDS011;801;47.982;7.810;2023-10-19T15:05:50;1.13;;;0.45;;
1615;SDS011;801;47.982;7.810;2023-10-19T15:08:17;0.88;;;0.75;;
1615;SDS011;801;47.982;7.810;2023-10-19T15:10:46;1.00;;;0.90;;
1615;SDS011;801;47.982;7.810;2023-10-19T15:13:13;0.80;;;0.70;;
1615;SDS011;801;47.982;7.810;2023-10-19T15:15:40;0.55;;;0.55;;
1615;SDS011;801;47.982;7.810;2023-10-19T15:18:07;1.10;;;0.73;;
1615;SDS011;801;47.982;7.810;2023-10-19T15:20:33;0.38;;;0.38;;
1615;SDS011;801;47.982;7.810;2023-10-19T15:23:01;1.00;;;0.95;;
1615;SDS011;801;47.982;7.810;2023-10-19T15:25:27;0.88;;;0.45;;
1615;SDS011;801;47.982;7.810;2023-10-19T15:27:55;1.40;;;0.40;;
1615;SDS011;801;47.982;7.810;2023-10-19T15:30:23;0.43;;;0.43;;
1615;SDS011;801;47.982;7.810;2023-10-19T15:32:50;0.57;;;0.55;;
1615;SDS011;801;47.982;7.810;2023-10-19T15:35:18;0.93;;;0.40;;
1615;SDS011;801;47.982;7.810;2023-10-19T15:37:47;0.30;;;0.30;;
1615;SDS011;801;47.982;7.810;2023-10-19T15:40:14;1.02;;;0.93;;
1615;SDS011;801;47.982;7.810;2023-10-19T15:42:41;2.58;;;1.25;;